Metar Report
Metar
METAR KN23 202356Z AUTO 00000KT 10SM SCT055 20/17 A3013 A02 16
METAR KN23 202256Z AUTO 00000KT 10SM CLR 22/17 A3012 A02 15
METAR KN23 202156Z AUTO 00000KT 10SM SCT060 23/16 A3012 A02 14
METAR KN23 202056Z AUTO 20003KT 10SM BKN060 23/15 A3011 A02 13
METAR KN23 201956Z AUTO 18003KT 10SM BKN050 23/14 A3012 A02 12
METAR KN23 201856Z AUTO 00000KT 10SM SCT050 24/15 A3012 A02 11
METAR KN23 201756Z AUTO 00000KT 10SM SCT050 23/14 A3015 A02 10
METAR KN23 201656Z AUTO 00000KT 10SM BKN044 23/14 A3016 A02 9
METAR KN23 201556Z AUTO 00000KT 10SM BKN034 BKN041 23/16 A3018 A02 8
METAR KN23 201456Z AUTO 03004KT 10SM CLR 21/16 A3018 A02 7
METAR KN23 201356Z AUTO 00000KT 10SM CLR 20/17 A3019 A02 6
METAR KN23 201256Z AUTO 00000KT 10SM BKN070 16/15 A3018 A02 5
METAR KN23 201156Z AUTO 00000KT 5SM BR BKN003 OVC070 15/15 A3018 A02 4
METAR KN23 201056Z AUTO 00000KT 10SM CLR 14/14 A3018 A02 3
METAR KN23 200956Z AUTO 00000KT 10SM BKN060 16/16 A3016 A02 2
METAR KN23 200856Z AUTO 00000KT 10SM OVC060 16/16 A3015 A02 1
METAR KN23 200756Z AUTO 00000KT 10SM OVC060 16/16 A3014 A02 0
METAR KN23 200656Z AUTO 00000KT 10SM OVC060 17/17 A3013 A02 69
METAR KN23 200556Z AUTO 00000KT 10SM OVC060 18/18 A3013 A02 68
METAR KN23 200456Z AUTO 00000KT 10SM OVC060 18/18 A3012 A02 67
METAR KN23 200356Z AUTO 00000KT 10SM OVC060 18/18 A3011 A02 66
METAR KN23 200256Z AUTO 00000KT 10SM OVC060 18/18 A3011 A02 65
METAR KN23 200156Z AUTO 00000KT 10SM OVC060 20/19 A3011 A02 64
METAR KN23 200056Z AUTO 00000KT 10SM SCT050 OVC060 20/19 A3009 A02 63
METAR KN23 192356Z AUTO 05003KT 10SM -RA OVC041 20/18 A3008 A02 62
METAR KN23 192256Z AUTO 00000KT 10SM SCT046 BKN060 OVC065 20/17 A3007 A02 61
METAR KN23 192156Z AUTO 00000KT 10SM SCT050 OVC055 21/16 A3006 A02 60
METAR KN23 192056Z AUTO 00000KT 10SM SCT042 OVC050 23/17 A3005 A02 59
METAR KN23 191956Z AUTO 00000KT 10SM SCT036 OVC065 23/17 A3004 A02 58
METAR KN23 191856Z AUTO 00000KT 10SM SCT043 BKN048 OVC065 23/16 A3003 A02 57
METAR KN23 191756Z AUTO 04006KT 10SM SCT041 BKN060 23/17 A3004 A02 56
METAR KN23 191656Z AUTO 06003KT 10SM BKN040 OVC060 23/16 A3004 A02 55
METAR KN23 191556Z AUTO 09003KT 10SM BKN029 OVC049 21/16 A3004 A02 54
METAR KN23 191456Z AUTO 07004KT 10SM BKN024 BKN060 20/16 A3004 A02 53
METAR KN23 191356Z AUTO 00000KT 10SM SCT021 OVC060 20/17 A3004 A02 52
METAR KN23 191256Z AUTO 00000KT 10SM BKN050 17/16 A3003 A02 51
METAR KN23 191156Z AUTO 00000KT 10SM SCT012 BKN025 16/16 A3001 A02 50
METAR KN23 191056Z AUTO 00000KT 10SM SCT007 BKN012 BKN033 15/15 A3000 A02 49
METAR KN23 190956Z AUTO 00000KT 10SM OVC021 15/15 A2999 A02 48
METAR KN23 190856Z AUTO 00000KT 10SM SCT005 BKN019 OVC024 14/14 A2997 A02 47
METAR KN23 190756Z AUTO 00000KT 10SM SCT021 14/14 A2997 A02 46
METAR KN23 190656Z AUTO 00000KT 10SM CLR 15/15 A2996 A02 45
METAR KN23 190556Z AUTO 00000KT 10SM CLR 15/15 A2995 A02 44
METAR KN23 190456Z AUTO 00000KT 10SM SCT039 17/16 A2994 A02 43
METAR KN23 190356Z AUTO 00000KT 10SM OVC037 18/18 A2995 A02 42
METAR KN23 190256Z AUTO 00000KT 10SM BKN018 OVC024 18/18 A2995 A02 41
METAR KN23 190156Z AUTO 00000KT 10SM BKN035 OVC042 20/19 A2995 A02 40
METAR KN23 190056Z AUTO 00000KT 10SM SCT035 BKN042 20/19 A2993 A02 39
METAR KN23 182356Z AUTO 00000KT 10SM CLR 20/17 A2991 A02 38
METAR KN23 182256Z AUTO 34005KT 10SM BKN043 23/18 A2990 A02 37
METAR KN23 182156Z AUTO 36005KT 10SM CLR 23/18 A2989 A02 36
METAR KN23 182056Z AUTO 36006KT 10SM CLR 23/17 A2987 A02 35
METAR KN23 181956Z AUTO 35006KT 10SM CLR 24/17 A2986 A02 34
METAR KN23 181856Z AUTO 00000KT 10SM BKN032 BKN039 23/18 A2987 A02 33
METAR KN23 181756Z AUTO 00000KT 10SM SCT024 SCT031 OVC043 23/19 A2988 A02 32
METAR KN23 181656Z AUTO 00000KT 10SM SCT018 BKN024 OVC060 23/21 A2988 A02 31
METAR KN23 181556Z AUTO 00000KT 10SM BKN012 OVC021 20/20 A2989 A02 P0002 30
METAR KN23 181456Z AUTO 00000KT 4SM RA BKN008 BKN015 OVC021 20/20 A2988 A02 P0040 29
METAR KN23 181356Z AUTO 00000KT 4SM RA SCT010 BKN016 OVC047 23/22 A2986 A02 P0001 28
METAR KN23 181256Z AUTO 00000KT 10SM SCT010 BKN017 OVC036 23/22 A2988 A02 27
METAR KN23 181156Z AUTO 00000KT 7SM SCT030 23/23 A2988 A02 26
METAR KN23 181056Z AUTO 00000KT 5SM HZ SCT011 SCT038 BKN047 21/MM A2989 A02 25
METAR KN23 180956Z AUTO 00000KT 5SM HZ OVC010 23/MM A2989 A02 24
METAR KN23 180856Z AUTO 00000KT 7SM SCT012 BKN080 21/MM A2989 A02 23
METAR KN23 180756Z AUTO 00000KT 7SM SCT021 BKN040 BKN090 21/MM A2989 A02 22
METAR KN23 180656Z AUTO 00000KT 3SM BR SCT014 SCT022 BKN110 21/MM A2990 A02 21
METAR KN23 180556Z AUTO 00000KT 7SM BKN014 BKN120 23/23 A2991 A02 20
METAR KN23 180456Z AUTO 00000KT 4SM -RA BKN017 BKN026 OVC035 21/21 A2992 A02 P0001 19
METAR KN23 180356Z AUTO 00000KT 1 1/2SM BR BKN001 BKN035 OVC075 20/MM A2993 A02 18
METAR KN23 180256Z AUTO 00000KT 3SM BR SCT017 BKN035 BKN055 21/MM A2993 A02 17